Searcy, Louisiana
Current Conditions -  °F | °C
As of 12:53 PM on Thursday 27 Nov 2014 (Local Time) from KESF Reporting Station
Clear Clear  
Wind Chill: 59°   Ceiling: Unl
Heat Index: 59°   Visibility: 10mi
Dew Point: 30°   Wind: 7mph
Humidity: 33%   Direction: NA
Pressure: 30.46"   Gusts: NA
Location:  31.6376°N, 92.2485°W
Report Text: KESF 271853Z AUTO VRB06KT 10SM CLR 15/M01 A3046 RMK AO2 SLP313 T01501011
Loading
Personal Weather Stations






























Interactive Weather Map New forecast layout! Learn more

10-Day Weather Forecast

Advertisements
Track Severe Weather on mobile